sensor_id;sensor_type;location;lat;lon;timestamp;temperature;humidity
32348;DHT22;18821;44.800;10.326;2022-12-29T00:02:13;9.00;99.90
32348;DHT22;18821;44.800;10.326;2022-12-29T00:04:39;9.10;99.90
32348;DHT22;18821;44.800;10.326;2022-12-29T00:07:06;9.00;99.90
32348;DHT22;18821;44.800;10.326;2022-12-29T00:09:32;8.90;99.90
32348;DHT22;18821;44.800;10.326;2022-12-29T00:11:59;8.90;99.90
32348;DHT22;18821;44.800;10.326;2022-12-29T00:14:26;8.80;99.90
32348;DHT22;18821;44.800;10.326;2022-12-29T00:17:11;8.80;99.90
32348;DHT22;18821;44.800;10.326;2022-12-29T00:19:37;8.70;99.90
32348;DHT22;18821;44.800;10.326;2022-12-29T00:22:21;8.70;99.90
32348;DHT22;18821;44.800;10.326;2022-12-29T00:25:08;8.70;99.90
32348;DHT22;18821;44.800;10.326;2022-12-29T00:27:53;8.70;99.90
32348;DHT22;18821;44.800;10.326;2022-12-29T00:30:39;8.70;99.90
32348;DHT22;18821;44.800;10.326;2022-12-29T00:33:28;8.80;99.90
32348;DHT22;18821;44.800;10.326;2022-12-29T00:36:24;8.80;99.90
32348;DHT22;18821;44.800;10.326;2022-12-29T00:38:55;8.80;99.90
32348;DHT22;18821;44.800;10.326;2022-12-29T00:41:41;8.70;99.90
32348;DHT22;18821;44.800;10.326;2022-12-29T00:44:26;8.70;99.90
32348;DHT22;18821;44.800;10.326;2022-12-29T00:46:54;8.70;99.90
32348;DHT22;18821;44.800;10.326;2022-12-29T00:49:20;8.70;99.90
32348;DHT22;18821;44.800;10.326;2022-12-29T00:52:04;8.70;99.90
32348;DHT22;18821;44.800;10.326;2022-12-29T00:54:33;8.70;99.90
32348;DHT22;18821;44.800;10.326;2022-12-29T00:57:00;8.80;99.90
32348;DHT22;18821;44.800;10.326;2022-12-29T00:59:26;8.80;99.90
32348;DHT22;18821;44.800;10.326;2022-12-29T01:01:52;8.70;99.90
32348;DHT22;18821;44.800;10.326;2022-12-29T01:04:21;8.80;99.90
32348;DHT22;18821;44.800;10.326;2022-12-29T01:06:48;8.80;99.90
32348;DHT22;18821;44.800;10.326;2022-12-29T01:09:15;8.80;99.90
32348;DHT22;18821;44.800;10.326;2022-12-29T01:12:00;8.80;99.90
32348;DHT22;18821;44.800;10.326;2022-12-29T01:14:27;8.70;99.90
32348;DHT22;18821;44.800;10.326;2022-12-29T01:16:53;8.70;99.90
32348;DHT22;18821;44.800;10.326;2022-12-29T01:19:19;8.70;99.90
32348;DHT22;18821;44.800;10.326;2022-12-29T01:21:46;8.70;99.90
32348;DHT22;18821;44.800;10.326;2022-12-29T01:24:13;8.60;99.90
32348;DHT22;18821;44.800;10.326;2022-12-29T01:26:40;8.60;99.90
32348;DHT22;18821;44.800;10.326;2022-12-29T01:29:06;8.60;99.90
32348;DHT22;18821;44.800;10.326;2022-12-29T01:31:32;8.60;99.90
32348;DHT22;18821;44.800;10.326;2022-12-29T01:33:58;8.60;99.90
32348;DHT22;18821;44.800;10.326;2022-12-29T01:36:24;8.60;99.90
32348;DHT22;18821;44.800;10.326;2022-12-29T01:38:50;8.70;99.90
32348;DHT22;18821;44.800;10.326;2022-12-29T01:41:16;8.70;99.90
32348;DHT22;18821;44.800;10.326;2022-12-29T01:43:56;8.70;99.90
32348;DHT22;18821;44.800;10.326;2022-12-29T01:46:47;8.70;99.90
32348;DHT22;18821;44.800;10.326;2022-12-29T01:49:19;8.70;99.90
32348;DHT22;18821;44.800;10.326;2022-12-29T01:51:55;8.70;99.90
32348;DHT22;18821;44.800;10.326;2022-12-29T01:54:22;8.70;99.90
32348;DHT22;18821;44.800;10.326;2022-12-29T01:56:51;8.70;99.90
32348;DHT22;18821;44.800;10.326;2022-12-29T01:59:22;8.60;99.90
32348;DHT22;18821;44.800;10.326;2022-12-29T02:01:49;8.70;99.90
32348;DHT22;18821;44.800;10.326;2022-12-29T02:04:15;8.80;99.90
32348;DHT22;18821;44.800;10.326;2022-12-29T02:06:57;8.80;99.90
32348;DHT22;18821;44.800;10.326;2022-12-29T02:09:25;8.80;99.90
32348;DHT22;18821;44.800;10.326;2022-12-29T02:11:52;8.70;99.90
32348;DHT22;18821;44.800;10.326;2022-12-29T02:14:18;8.70;99.90
32348;DHT22;18821;44.800;10.326;2022-12-29T02:19:53;8.70;99.90
32348;DHT22;18821;44.800;10.326;2022-12-29T02:25:57;8.60;99.90
32348;DHT22;18821;44.800;10.326;2022-12-29T02:29:09;8.60;99.90
32348;DHT22;18821;44.800;10.326;2022-12-29T02:32:01;8.60;99.90
32348;DHT22;18821;44.800;10.326;2022-12-29T02:37:05;8.70;99.90
32348;DHT22;18821;44.800;10.326;2022-12-29T02:45:04;8.80;99.90
32348;DHT22;18821;44.800;10.326;2022-12-29T02:50:22;8.90;99.90
32348;DHT22;18821;44.800;10.326;2022-12-29T02:53:26;8.90;99.90
32348;DHT22;18821;44.800;10.326;2022-12-29T02:56:22;8.90;99.90
32348;DHT22;18821;44.800;10.326;2022-12-29T02:58:49;8.80;99.90
32348;DHT22;18821;44.800;10.326;2022-12-29T03:06:56;8.90;99.90
32348;DHT22;18821;44.800;10.326;2022-12-29T03:15:05;8.70;99.90
32348;DHT22;18821;44.800;10.326;2022-12-29T03:18:14;8.70;99.90
32348;DHT22;18821;44.800;10.326;2022-12-29T03:20:55;8.80;99.90
32348;DHT22;18821;44.800;10.326;2022-12-29T03:23:25;8.70;99.90
32348;DHT22;18821;44.800;10.326;2022-12-29T03:25:56;8.70;99.90
32348;DHT22;18821;44.800;10.326;2022-12-29T03:28:28;8.70;99.90
32348;DHT22;18821;44.800;10.326;2022-12-29T03:30:57;8.70;99.90
32348;DHT22;18821;44.800;10.326;2022-12-29T03:33:27;8.70;99.90
32348;DHT22;18821;44.800;10.326;2022-12-29T03:36:00;8.60;99.90
32348;DHT22;18821;44.800;10.326;2022-12-29T03:38:37;8.60;99.90
32348;DHT22;18821;44.800;10.326;2022-12-29T03:41:09;8.60;99.90
32348;DHT22;18821;44.800;10.326;2022-12-29T03:43:37;8.60;99.90
32348;DHT22;18821;44.800;10.326;2022-12-29T03:46:03;8.60;99.90
32348;DHT22;18821;44.800;10.326;2022-12-29T03:48:29;8.60;99.90
32348;DHT22;18821;44.800;10.326;2022-12-29T03:50:56;8.60;99.90
32348;DHT22;18821;44.800;10.326;2022-12-29T03:53:22;8.60;99.90
32348;DHT22;18821;44.800;10.326;2022-12-29T03:55:48;8.50;99.90
32348;DHT22;18821;44.800;10.326;2022-12-29T03:58:15;8.60;99.90
32348;DHT22;18821;44.800;10.326;2022-12-29T04:01:13;8.50;99.90
32348;DHT22;18821;44.800;10.326;2022-12-29T04:03:39;8.60;99.90
32348;DHT22;18821;44.800;10.326;2022-12-29T04:06:05;8.60;99.90
32348;DHT22;18821;44.800;10.326;2022-12-29T04:08:38;8.60;99.90
32348;DHT22;18821;44.800;10.326;2022-12-29T04:11:05;8.50;99.90
32348;DHT22;18821;44.800;10.326;2022-12-29T04:13:31;8.50;99.90
32348;DHT22;18821;44.800;10.326;2022-12-29T04:15:57;8.50;99.90
32348;DHT22;18821;44.800;10.326;2022-12-29T04:18:23;8.50;99.90
32348;DHT22;18821;44.800;10.326;2022-12-29T04:20:50;8.50;99.90
32348;DHT22;18821;44.800;10.326;2022-12-29T04:23:36;8.50;99.90
32348;DHT22;18821;44.800;10.326;2022-12-29T04:26:06;8.60;99.90
32348;DHT22;18821;44.800;10.326;2022-12-29T04:28:36;8.60;99.90
32348;DHT22;18821;44.800;10.326;2022-12-29T04:31:20;8.60;99.90
32348;DHT22;18821;44.800;10.326;2022-12-29T04:33:48;8.60;99.90
32348;DHT22;18821;44.800;10.326;2022-12-29T04:36:15;8.50;99.90
32348;DHT22;18821;44.800;10.326;2022-12-29T04:38:42;8.50;99.90
32348;DHT22;18821;44.800;10.326;2022-12-29T04:41:08;8.60;99.90
32348;DHT22;18821;44.800;10.326;2022-12-29T04:43:37;8.60;99.90
32348;DHT22;18821;44.800;10.326;2022-12-29T04:46:22;8.60;99.90
32348;DHT22;18821;44.800;10.326;2022-12-29T04:49:06;8.60;99.90
32348;DHT22;18821;44.800;10.326;2022-12-29T04:51:52;8.70;99.90
32348;DHT22;18821;44.800;10.326;2022-12-29T04:54:19;8.70;99.90
32348;DHT22;18821;44.800;10.326;2022-12-29T04:56:53;8.60;99.90
32348;DHT22;18821;44.800;10.326;2022-12-29T04:59:19;8.50;99.90
32348;DHT22;18821;44.800;10.326;2022-12-29T05:01:48;8.50;99.90
32348;DHT22;18821;44.800;10.326;2022-12-29T05:04:14;8.60;99.90
32348;DHT22;18821;44.800;10.326;2022-12-29T05:06:41;8.50;99.90
32348;DHT22;18821;44.800;10.326;2022-12-29T05:09:08;8.60;99.90
32348;DHT22;18821;44.800;10.326;2022-12-29T05:11:34;8.60;99.90
32348;DHT22;18821;44.800;10.326;2022-12-29T05:14:01;8.70;99.90
32348;DHT22;18821;44.800;10.326;2022-12-29T05:16:27;8.60;99.90
32348;DHT22;18821;44.800;10.326;2022-12-29T05:18:53;8.60;99.90
32348;DHT22;18821;44.800;10.326;2022-12-29T05:21:19;8.60;99.90
32348;DHT22;18821;44.800;10.326;2022-12-29T05:23:45;8.50;99.90
32348;DHT22;18821;44.800;10.326;2022-12-29T05:26:11;8.60;99.90
32348;DHT22;18821;44.800;10.326;2022-12-29T05:29:00;8.60;99.90
32348;DHT22;18821;44.800;10.326;2022-12-29T05:31:26;8.70;99.90
32348;DHT22;18821;44.800;10.326;2022-12-29T05:33:52;8.60;99.90
32348;DHT22;18821;44.800;10.326;2022-12-29T05:36:19;8.50;99.90
32348;DHT22;18821;44.800;10.326;2022-12-29T05:38:49;8.50;99.90
32348;DHT22;18821;44.800;10.326;2022-12-29T05:41:17;8.60;99.90
32348;DHT22;18821;44.800;10.326;2022-12-29T05:44:02;8.60;99.90
32348;DHT22;18821;44.800;10.326;2022-12-29T05:46:33;8.60;99.90
32348;DHT22;18821;44.800;10.326;2022-12-29T05:49:17;8.50;99.90
32348;DHT22;18821;44.800;10.326;2022-12-29T05:51:57;8.60;99.90
32348;DHT22;18821;44.800;10.326;2022-12-29T05:54:23;8.50;99.90
32348;DHT22;18821;44.800;10.326;2022-12-29T05:56:49;8.50;99.90
32348;DHT22;18821;44.800;10.326;2022-12-29T05:59:15;8.50;99.90
32348;DHT22;18821;44.800;10.326;2022-12-29T06:01:42;8.50;99.90
32348;DHT22;18821;44.800;10.326;2022-12-29T06:04:08;8.50;99.90
32348;DHT22;18821;44.800;10.326;2022-12-29T06:06:34;8.50;99.90
32348;DHT22;18821;44.800;10.326;2022-12-29T06:09:00;8.50;99.90
32348;DHT22;18821;44.800;10.326;2022-12-29T06:11:26;8.50;99.90
32348;DHT22;18821;44.800;10.326;2022-12-29T06:13:55;8.40;99.90
32348;DHT22;18821;44.800;10.326;2022-12-29T06:16:22;8.50;99.90
32348;DHT22;18821;44.800;10.326;2022-12-29T06:18:52;8.50;99.90
32348;DHT22;18821;44.800;10.326;2022-12-29T06:21:18;8.60;99.90
32348;DHT22;18821;44.800;10.326;2022-12-29T06:23:45;8.60;99.90
32348;DHT22;18821;44.800;10.326;2022-12-29T06:26:11;8.60;99.90
32348;DHT22;18821;44.800;10.326;2022-12-29T06:28:37;8.50;99.90
32348;DHT22;18821;44.800;10.326;2022-12-29T06:31:03;8.60;99.90
32348;DHT22;18821;44.800;10.326;2022-12-29T06:33:29;8.60;99.90
32348;DHT22;18821;44.800;10.326;2022-12-29T06:35:56;8.60;99.90
32348;DHT22;18821;44.800;10.326;2022-12-29T06:38:22;8.70;99.90
32348;DHT22;18821;44.800;10.326;2022-12-29T06:40:48;8.70;99.90
32348;DHT22;18821;44.800;10.326;2022-12-29T06:43:19;8.70;99.90
32348;DHT22;18821;44.800;10.326;2022-12-29T06:45:54;8.70;99.90
32348;DHT22;18821;44.800;10.326;2022-12-29T06:48:20;8.70;99.90
32348;DHT22;18821;44.800;10.326;2022-12-29T06:50:46;8.70;99.90
32348;DHT22;18821;44.800;10.326;2022-12-29T06:53:12;8.60;99.90
32348;DHT22;18821;44.800;10.326;2022-12-29T06:55:40;8.60;99.90
32348;DHT22;18821;44.800;10.326;2022-12-29T06:58:06;8.60;99.90
32348;DHT22;18821;44.800;10.326;2022-12-29T07:00:32;8.60;99.90
32348;DHT22;18821;44.800;10.326;2022-12-29T07:02:58;8.60;99.90
32348;DHT22;18821;44.800;10.326;2022-12-29T07:05:24;8.70;99.90
32348;DHT22;18821;44.800;10.326;2022-12-29T07:07:54;8.70;99.90
32348;DHT22;18821;44.800;10.326;2022-12-29T07:10:21;8.70;99.90
32348;DHT22;18821;44.800;10.326;2022-12-29T07:12:47;8.70;99.90
32348;DHT22;18821;44.800;10.326;2022-12-29T07:15:13;8.80;99.90
32348;DHT22;18821;44.800;10.326;2022-12-29T07:17:40;8.80;99.90
32348;DHT22;18821;44.800;10.326;2022-12-29T07:20:07;8.80;99.90
32348;DHT22;18821;44.800;10.326;2022-12-29T07:22:33;8.90;99.90
32348;DHT22;18821;44.800;10.326;2022-12-29T07:24:59;8.80;99.90
32348;DHT22;18821;44.800;10.326;2022-12-29T07:27:25;8.90;99.90
32348;DHT22;18821;44.800;10.326;2022-12-29T07:29:50;8.90;99.90
32348;DHT22;18821;44.800;10.326;2022-12-29T07:32:16;8.90;99.90
32348;DHT22;18821;44.800;10.326;2022-12-29T07:34:42;9.00;99.90
32348;DHT22;18821;44.800;10.326;2022-12-29T07:37:10;9.00;99.90
32348;DHT22;18821;44.800;10.326;2022-12-29T07:39:36;9.00;99.90
32348;DHT22;18821;44.800;10.326;2022-12-29T07:42:02;9.10;99.90
32348;DHT22;18821;44.800;10.326;2022-12-29T07:44:36;9.20;99.90
32348;DHT22;18821;44.800;10.326;2022-12-29T07:47:15;9.20;99.90
32348;DHT22;18821;44.800;10.326;2022-12-29T07:49:41;9.30;99.90
32348;DHT22;18821;44.800;10.326;2022-12-29T07:52:07;9.30;99.90
32348;DHT22;18821;44.800;10.326;2022-12-29T07:54:33;9.30;99.90
32348;DHT22;18821;44.800;10.326;2022-12-29T07:56:59;9.30;99.90
32348;DHT22;18821;44.800;10.326;2022-12-29T07:59:26;9.30;99.90
32348;DHT22;18821;44.800;10.326;2022-12-29T08:01:53;9.20;99.90
32348;DHT22;18821;44.800;10.326;2022-12-29T08:04:19;9.10;99.90
32348;DHT22;18821;44.800;10.326;2022-12-29T08:06:45;9.20;99.90
32348;DHT22;18821;44.800;10.326;2022-12-29T08:09:11;9.30;99.90
32348;DHT22;18821;44.800;10.326;2022-12-29T08:11:37;9.40;99.90
32348;DHT22;18821;44.800;10.326;2022-12-29T08:14:04;9.40;99.90
32348;DHT22;18821;44.800;10.326;2022-12-29T08:16:30;9.40;99.90
32348;DHT22;18821;44.800;10.326;2022-12-29T08:18:56;9.40;99.90
32348;DHT22;18821;44.800;10.326;2022-12-29T08:21:23;9.30;99.90
32348;DHT22;18821;44.800;10.326;2022-12-29T08:23:50;9.30;99.90
32348;DHT22;18821;44.800;10.326;2022-12-29T08:26:17;9.20;99.90
32348;DHT22;18821;44.800;10.326;2022-12-29T08:28:44;9.10;99.90
32348;DHT22;18821;44.800;10.326;2022-12-29T08:31:10;9.20;99.90
32348;DHT22;18821;44.800;10.326;2022-12-29T08:33:36;9.30;99.90
32348;DHT22;18821;44.800;10.326;2022-12-29T08:36:03;9.30;99.90
32348;DHT22;18821;44.800;10.326;2022-12-29T08:38:30;9.40;99.90
32348;DHT22;18821;44.800;10.326;2022-12-29T08:40:56;9.40;99.90
32348;DHT22;18821;44.800;10.326;2022-12-29T08:43:24;9.50;99.90
32348;DHT22;18821;44.800;10.326;2022-12-29T08:45:50;9.40;99.90
32348;DHT22;18821;44.800;10.326;2022-12-29T08:48:16;9.40;99.90
32348;DHT22;18821;44.800;10.326;2022-12-29T08:50:46;9.30;99.90
32348;DHT22;18821;44.800;10.326;2022-12-29T08:53:14;9.30;99.90
32348;DHT22;18821;44.800;10.326;2022-12-29T08:55:40;9.30;99.90
32348;DHT22;18821;44.800;10.326;2022-12-29T08:58:06;9.40;99.90
32348;DHT22;18821;44.800;10.326;2022-12-29T09:00:34;9.40;99.90
32348;DHT22;18821;44.800;10.326;2022-12-29T09:03:01;9.50;99.90
32348;DHT22;18821;44.800;10.326;2022-12-29T09:05:27;9.50;99.90
32348;DHT22;18821;44.800;10.326;2022-12-29T09:07:53;9.60;99.90
32348;DHT22;18821;44.800;10.326;2022-12-29T09:10:19;9.60;99.90
32348;DHT22;18821;44.800;10.326;2022-12-29T09:12:44;9.60;99.90
32348;DHT22;18821;44.800;10.326;2022-12-29T09:15:10;9.50;99.90
32348;DHT22;18821;44.800;10.326;2022-12-29T09:17:37;9.50;99.90
32348;DHT22;18821;44.800;10.326;2022-12-29T09:20:12;9.50;99.90
32348;DHT22;18821;44.800;10.326;2022-12-29T09:22:38;9.40;99.90
32348;DHT22;18821;44.800;10.326;2022-12-29T09:25:05;9.30;99.90
32348;DHT22;18821;44.800;10.326;2022-12-29T09:27:31;9.30;99.90
32348;DHT22;18821;44.800;10.326;2022-12-29T09:29:57;9.40;99.90
32348;DHT22;18821;44.800;10.326;2022-12-29T09:32:22;9.40;99.90
32348;DHT22;18821;44.800;10.326;2022-12-29T09:34:48;9.40;99.90
32348;DHT22;18821;44.800;10.326;2022-12-29T09:37:15;9.50;99.90
32348;DHT22;18821;44.800;10.326;2022-12-29T09:39:41;9.50;99.90
32348;DHT22;18821;44.800;10.326;2022-12-29T09:42:32;9.50;99.90
32348;DHT22;18821;44.800;10.326;2022-12-29T09:45:18;9.50;99.90
32348;DHT22;18821;44.800;10.326;2022-12-29T09:47:46;9.60;99.90
32348;DHT22;18821;44.800;10.326;2022-12-29T09:50:32;9.60;99.90
32348;DHT22;18821;44.800;10.326;2022-12-29T09:55:42;9.60;99.90
32348;DHT22;18821;44.800;10.326;2022-12-29T09:58:25;9.60;99.90
32348;DHT22;18821;44.800;10.326;2022-12-29T10:01:46;9.60;99.90
32348;DHT22;18821;44.800;10.326;2022-12-29T10:03:54;9.50;99.90
32348;DHT22;18821;44.800;10.326;2022-12-29T10:09:19;9.50;99.90
32348;DHT22;18821;44.800;10.326;2022-12-29T10:14:54;9.70;99.90
32348;DHT22;18821;44.800;10.326;2022-12-29T10:17:30;9.80;99.90
32348;DHT22;18821;44.800;10.326;2022-12-29T10:25:29;9.90;99.90
32348;DHT22;18821;44.800;10.326;2022-12-29T10:27:59;10.00;99.90
32348;DHT22;18821;44.800;10.326;2022-12-29T10:30:29;10.00;99.90
32348;DHT22;18821;44.800;10.326;2022-12-29T10:33:07;10.00;99.90
32348;DHT22;18821;44.800;10.326;2022-12-29T10:35:39;10.10;99.90
32348;DHT22;18821;44.800;10.326;2022-12-29T10:41:11;10.10;99.90
32348;DHT22;18821;44.800;10.326;2022-12-29T10:46:10;10.00;99.90
32348;DHT22;18821;44.800;10.326;2022-12-29T10:48:37;9.70;99.90
32348;DHT22;18821;44.800;10.326;2022-12-29T10:51:05;9.70;99.90
32348;DHT22;18821;44.800;10.326;2022-12-29T10:53:45;9.70;99.90
32348;DHT22;18821;44.800;10.326;2022-12-29T10:56:25;9.70;99.90
32348;DHT22;18821;44.800;10.326;2022-12-29T10:58:55;9.80;99.90
32348;DHT22;18821;44.800;10.326;2022-12-29T11:01:30;9.80;99.90
32348;DHT22;18821;44.800;10.326;2022-12-29T11:06:47;10.00;99.90
32348;DHT22;18821;44.800;10.326;2022-12-29T11:09:19;10.10;99.90
32348;DHT22;18821;44.800;10.326;2022-12-29T11:11:47;10.10;99.90
32348;DHT22;18821;44.800;10.326;2022-12-29T11:14:16;10.10;99.90
32348;DHT22;18821;44.800;10.326;2022-12-29T11:16:43;10.10;99.90
32348;DHT22;18821;44.800;10.326;2022-12-29T11:19:28;10.10;99.90
32348;DHT22;18821;44.800;10.326;2022-12-29T11:21:54;10.10;99.90
32348;DHT22;18821;44.800;10.326;2022-12-29T11:24:27;10.10;99.90
32348;DHT22;18821;44.800;10.326;2022-12-29T11:26:55;10.10;99.90
32348;DHT22;18821;44.800;10.326;2022-12-29T11:29:29;10.00;99.90
32348;DHT22;18821;44.800;10.326;2022-12-29T11:32:12;10.00;99.90
32348;DHT22;18821;44.800;10.326;2022-12-29T11:34:38;9.90;99.90
32348;DHT22;18821;44.800;10.326;2022-12-29T11:37:09;10.10;99.90
32348;DHT22;18821;44.800;10.326;2022-12-29T11:42:40;10.10;99.90
32348;DHT22;18821;44.800;10.326;2022-12-29T11:45:15;10.10;99.90
32348;DHT22;18821;44.800;10.326;2022-12-29T11:47:45;10.10;99.90
32348;DHT22;18821;44.800;10.326;2022-12-29T11:50:27;10.00;99.90
32348;DHT22;18821;44.800;10.326;2022-12-29T11:55:26;9.90;99.90
32348;DHT22;18821;44.800;10.326;2022-12-29T11:57:57;9.90;99.90
32348;DHT22;18821;44.800;10.326;2022-12-29T12:00:25;10.00;99.90
32348;DHT22;18821;44.800;10.326;2022-12-29T12:08:01;9.90;99.90
32348;DHT22;18821;44.800;10.326;2022-12-29T12:11:01;9.90;99.90
32348;DHT22;18821;44.800;10.326;2022-12-29T12:14:36;9.90;99.90
32348;DHT22;18821;44.800;10.326;2022-12-29T12:17:00;10.00;99.90
32348;DHT22;18821;44.800;10.326;2022-12-29T12:19:43;9.80;99.90
32348;DHT22;18821;44.800;10.326;2022-12-29T12:22:35;9.80;99.90
32348;DHT22;18821;44.800;10.326;2022-12-29T12:25:18;9.90;99.90
32348;DHT22;18821;44.800;10.326;2022-12-29T12:28:17;9.80;99.90
32348;DHT22;18821;44.800;10.326;2022-12-29T12:30:48;9.90;99.90
32348;DHT22;18821;44.800;10.326;2022-12-29T12:33:27;9.80;99.90
32348;DHT22;18821;44.800;10.326;2022-12-29T12:38:55;9.70;99.90
32348;DHT22;18821;44.800;10.326;2022-12-29T12:58:31;9.90;99.90
32348;DHT22;18821;44.800;10.326;2022-12-29T13:19:56;9.70;99.90
32348;DHT22;18821;44.800;10.326;2022-12-29T13:22:49;9.60;99.90
32348;DHT22;18821;44.800;10.326;2022-12-29T13:25:35;9.60;99.90
32348;DHT22;18821;44.800;10.326;2022-12-29T13:31:18;9.40;99.90
32348;DHT22;18821;44.800;10.326;2022-12-29T13:34:15;9.50;99.90
32348;DHT22;18821;44.800;10.326;2022-12-29T13:36:39;9.50;99.90
32348;DHT22;18821;44.800;10.326;2022-12-29T13:41:47;9.50;99.90
32348;DHT22;18821;44.800;10.326;2022-12-29T13:44:21;9.60;99.90
32348;DHT22;18821;44.800;10.326;2022-12-29T13:46:48;9.60;99.90
32348;DHT22;18821;44.800;10.326;2022-12-29T13:49:20;9.60;99.90
32348;DHT22;18821;44.800;10.326;2022-12-29T13:51:55;9.60;99.90
32348;DHT22;18821;44.800;10.326;2022-12-29T13:54:35;9.60;99.90
32348;DHT22;18821;44.800;10.326;2022-12-29T13:57:24;9.60;99.90
32348;DHT22;18821;44.800;10.326;2022-12-29T14:02:50;9.60;99.90
32348;DHT22;18821;44.800;10.326;2022-12-29T14:07:57;9.50;99.90
32348;DHT22;18821;44.800;10.326;2022-12-29T14:13:02;9.50;99.90
32348;DHT22;18821;44.800;10.326;2022-12-29T14:15:28;9.50;99.90
32348;DHT22;18821;44.800;10.326;2022-12-29T14:18:19;9.50;99.90
32348;DHT22;18821;44.800;10.326;2022-12-29T14:23:15;9.50;99.90
32348;DHT22;18821;44.800;10.326;2022-12-29T14:28:35;9.70;99.90
32348;DHT22;18821;44.800;10.326;2022-12-29T14:31:03;9.70;99.90
32348;DHT22;18821;44.800;10.326;2022-12-29T14:33:33;9.70;99.90
32348;DHT22;18821;44.800;10.326;2022-12-29T14:38:45;9.70;99.90
32348;DHT22;18821;44.800;10.326;2022-12-29T14:41:26;9.70;99.90
32348;DHT22;18821;44.800;10.326;2022-12-29T14:49:18;9.80;99.90
32348;DHT22;18821;44.800;10.326;2022-12-29T14:51:46;9.90;99.90
32348;DHT22;18821;44.800;10.326;2022-12-29T14:57:03;9.90;99.90
32348;DHT22;18821;44.800;10.326;2022-12-29T14:59:31;9.90;99.90
32348;DHT22;18821;44.800;10.326;2022-12-29T15:02:00;9.90;99.90
32348;DHT22;18821;44.800;10.326;2022-12-29T15:04:31;9.90;99.90
32348;DHT22;18821;44.800;10.326;2022-12-29T15:06:59;9.90;99.90
32348;DHT22;18821;44.800;10.326;2022-12-29T15:12:45;9.90;99.90
32348;DHT22;18821;44.800;10.326;2022-12-29T15:15:24;9.90;99.90
32348;DHT22;18821;44.800;10.326;2022-12-29T15:17:53;9.80;99.90
32348;DHT22;18821;44.800;10.326;2022-12-29T15:20:26;9.80;99.90
32348;DHT22;18821;44.800;10.326;2022-12-29T15:22:57;9.80;99.90
32348;DHT22;18821;44.800;10.326;2022-12-29T15:25:24;9.90;99.90
32348;DHT22;18821;44.800;10.326;2022-12-29T15:27:59;9.80;99.90
32348;DHT22;18821;44.800;10.326;2022-12-29T15:30:26;9.80;99.90
32348;DHT22;18821;44.800;10.326;2022-12-29T15:32:52;9.80;99.90
32348;DHT22;18821;44.800;10.326;2022-12-29T15:37:49;9.80;99.90
32348;DHT22;18821;44.800;10.326;2022-12-29T15:40:29;9.70;99.90
32348;DHT22;18821;44.800;10.326;2022-12-29T15:45:37;9.70;99.90
32348;DHT22;18821;44.800;10.326;2022-12-29T15:48:05;9.70;99.90
32348;DHT22;18821;44.800;10.326;2022-12-29T15:50:34;9.70;99.90
32348;DHT22;18821;44.800;10.326;2022-12-29T15:53:10;9.70;99.90
32348;DHT22;18821;44.800;10.326;2022-12-29T15:55:39;9.70;99.90
32348;DHT22;18821;44.800;10.326;2022-12-29T15:58:27;9.70;99.90
32348;DHT22;18821;44.800;10.326;2022-12-29T16:00:56;9.70;99.90
32348;DHT22;18821;44.800;10.326;2022-12-29T16:03:26;9.80;99.90
32348;DHT22;18821;44.800;10.326;2022-12-29T16:05:55;9.70;99.90
32348;DHT22;18821;44.800;10.326;2022-12-29T16:08:39;9.70;99.90
32348;DHT22;18821;44.800;10.326;2022-12-29T16:11:22;9.70;99.90
32348;DHT22;18821;44.800;10.326;2022-12-29T16:13:51;9.70;99.90
32348;DHT22;18821;44.800;10.326;2022-12-29T16:16:27;9.70;99.90
32348;DHT22;18821;44.800;10.326;2022-12-29T16:18:54;9.70;99.90
32348;DHT22;18821;44.800;10.326;2022-12-29T16:21:34;9.70;99.90
32348;DHT22;18821;44.800;10.326;2022-12-29T16:24:05;9.70;99.90
32348;DHT22;18821;44.800;10.326;2022-12-29T16:26:32;9.70;99.90
32348;DHT22;18821;44.800;10.326;2022-12-29T16:29:01;9.70;99.90
32348;DHT22;18821;44.800;10.326;2022-12-29T16:34:23;9.70;99.90
32348;DHT22;18821;44.800;10.326;2022-12-29T16:37:01;9.70;99.90
32348;DHT22;18821;44.800;10.326;2022-12-29T16:39:38;9.70;99.90
32348;DHT22;18821;44.800;10.326;2022-12-29T16:42:45;9.60;99.90
32348;DHT22;18821;44.800;10.326;2022-12-29T16:50:26;9.60;99.90
32348;DHT22;18821;44.800;10.326;2022-12-29T16:52:53;9.60;99.90
32348;DHT22;18821;44.800;10.326;2022-12-29T16:55:19;9.60;99.90
32348;DHT22;18821;44.800;10.326;2022-12-29T16:57:47;9.60;99.90
32348;DHT22;18821;44.800;10.326;2022-12-29T17:00:20;9.60;99.90
32348;DHT22;18821;44.800;10.326;2022-12-29T17:02:48;9.60;99.90
32348;DHT22;18821;44.800;10.326;2022-12-29T17:05:16;9.50;99.90
32348;DHT22;18821;44.800;10.326;2022-12-29T17:07:43;9.50;99.90
32348;DHT22;18821;44.800;10.326;2022-12-29T17:10:10;9.50;99.90
32348;DHT22;18821;44.800;10.326;2022-12-29T17:12:38;9.50;99.90
32348;DHT22;18821;44.800;10.326;2022-12-29T17:17:43;9.50;99.90
32348;DHT22;18821;44.800;10.326;2022-12-29T17:22:40;9.40;99.90
32348;DHT22;18821;44.800;10.326;2022-12-29T17:25:10;9.40;99.90
32348;DHT22;18821;44.800;10.326;2022-12-29T17:27:42;9.40;99.90
32348;DHT22;18821;44.800;10.326;2022-12-29T17:32:45;9.30;99.90
32348;DHT22;18821;44.800;10.326;2022-12-29T17:35:16;9.30;99.90
32348;DHT22;18821;44.800;10.326;2022-12-29T17:37:43;9.30;99.90
32348;DHT22;18821;44.800;10.326;2022-12-29T17:40:20;9.40;99.90
32348;DHT22;18821;44.800;10.326;2022-12-29T17:42:48;9.40;99.90
32348;DHT22;18821;44.800;10.326;2022-12-29T17:45:24;9.40;99.90
32348;DHT22;18821;44.800;10.326;2022-12-29T17:47:50;9.30;99.90
32348;DHT22;18821;44.800;10.326;2022-12-29T17:50:19;9.30;99.90
32348;DHT22;18821;44.800;10.326;2022-12-29T17:52:53;9.40;99.90
32348;DHT22;18821;44.800;10.326;2022-12-29T17:55:21;9.30;99.90
32348;DHT22;18821;44.800;10.326;2022-12-29T17:57:47;9.30;99.90
32348;DHT22;18821;44.800;10.326;2022-12-29T18:00:16;9.30;99.90
32348;DHT22;18821;44.800;10.326;2022-12-29T18:02:43;9.30;99.90
32348;DHT22;18821;44.800;10.326;2022-12-29T18:05:22;9.30;99.90
32348;DHT22;18821;44.800;10.326;2022-12-29T18:07:50;9.20;99.90
32348;DHT22;18821;44.800;10.326;2022-12-29T18:10:17;9.20;99.90
32348;DHT22;18821;44.800;10.326;2022-12-29T18:12:46;9.20;99.90
32348;DHT22;18821;44.800;10.326;2022-12-29T18:15:29;9.20;99.90
32348;DHT22;18821;44.800;10.326;2022-12-29T18:20:34;9.20;99.90
32348;DHT22;18821;44.800;10.326;2022-12-29T18:23:00;9.20;99.90
32348;DHT22;18821;44.800;10.326;2022-12-29T18:27:55;9.20;99.90
32348;DHT22;18821;44.800;10.326;2022-12-29T18:30:21;9.20;99.90
32348;DHT22;18821;44.800;10.326;2022-12-29T18:32:47;9.20;99.90
32348;DHT22;18821;44.800;10.326;2022-12-29T18:35:29;9.10;99.90
32348;DHT22;18821;44.800;10.326;2022-12-29T18:37:57;9.10;99.90